Time;durP1;ratioP1;P1;durP2;ratioP2;P2;SDS_P1;SDS_P2;PMS_P1;PMS_P2;Temp;Humidity;BMP_temperature;BMP_pressure;BME280_temperature;BME280_humidity;BME280_pressure;Samples;Min_cycle;Max_cycle;Signal;HPM_P1;HPM_P2
2023/09/25 00:00:33;;;;;;;5.93;3.40;;;;;;;14.88;52.62;98151.63;5021037;28;20629;-72
2023/09/25 00:02:59;;;;;;;4.60;2.90;;;;;;;14.83;52.83;98150.44;5044626;28;20456;-73
2023/09/25 00:05:26;;;;;;;4.80;3.07;;;;;;;14.86;52.59;98143.06;5027347;28;20432;-73
2023/09/25 00:07:52;;;;;;;3.37;3.00;;;;;;;14.92;52.42;98146.88;5034937;28;20942;-72
2023/09/25 00:10:17;;;;;;;5.73;3.10;;;;;;;14.92;52.66;98152.16;5038284;28;20442;-73
2023/09/25 00:12:44;;;;;;;4.10;2.90;;;;;;;14.93;52.55;98148.53;5036488;28;20198;-73
2023/09/25 00:15:10;;;;;;;4.20;3.10;;;;;;;14.84;52.71;98139.75;5037221;28;20250;-73
2023/09/25 00:17:35;;;;;;;2.80;2.60;;;;;;;14.83;52.94;98146.00;5028217;28;20451;-72
2023/09/25 00:20:01;;;;;;;4.53;3.10;;;;;;;14.82;52.93;98139.06;5029654;28;20295;-70
2023/09/25 00:22:26;;;;;;;3.50;2.70;;;;;;;14.83;52.87;98143.38;5030609;28;20211;-71
2023/09/25 00:24:52;;;;;;;4.17;3.10;;;;;;;14.79;53.14;98142.03;5032391;28;20263;-71
2023/09/25 00:27:17;;;;;;;4.83;2.60;;;;;;;14.72;52.98;98141.00;5040759;28;20183;-71
2023/09/25 00:29:43;;;;;;;6.17;3.13;;;;;;;14.70;52.87;98137.69;5035099;28;20207;-70
2023/09/25 00:32:09;;;;;;;4.87;3.13;;;;;;;14.69;52.60;98136.84;5034048;28;20183;-71
2023/09/25 00:34:34;;;;;;;6.30;3.50;;;;;;;14.59;53.21;98136.94;5037082;28;20580;-71
2023/09/25 00:36:59;;;;;;;5.30;3.40;;;;;;;14.48;53.24;98129.28;5014254;28;20317;-72
2023/09/25 00:39:25;;;;;;;5.00;2.90;;;;;;;14.48;53.42;98124.00;5034654;28;20211;-70
2023/09/25 00:41:50;;;;;;;6.17;3.10;;;;;;;14.53;53.33;98132.25;5017685;28;20210;-73
2023/09/25 00:44:16;;;;;;;4.00;2.83;;;;;;;14.48;53.37;98139.00;5032169;28;20191;-72
2023/09/25 00:46:42;;;;;;;6.90;3.10;;;;;;;14.49;53.51;98128.28;5041379;28;20206;-71
2023/09/25 00:49:08;;;;;;;4.30;3.13;;;;;;;14.51;53.51;98131.59;5038924;28;20787;-72
2023/09/25 00:51:33;;;;;;;4.17;3.30;;;;;;;14.57;53.27;98133.63;5025295;28;20430;-72
2023/09/25 00:53:59;;;;;;;5.40;2.90;;;;;;;14.51;53.39;98138.69;5044583;28;20555;-75
2023/09/25 00:56:25;;;;;;;3.60;2.73;;;;;;;14.53;53.30;98137.53;5021668;28;20184;-74
2023/09/25 00:58:51;;;;;;;8.73;3.20;;;;;;;14.49;53.27;98141.47;5029750;28;20278;-73
2023/09/25 01:01:18;;;;;;;5.10;3.00;;;;;;;14.46;53.16;98135.66;5039428;28;20672;-74
2023/09/25 01:03:43;;;;;;;4.17;3.00;;;;;;;14.35;53.43;98145.50;5027920;28;20417;-74
2023/09/25 01:06:08;;;;;;;4.00;2.73;;;;;;;14.37;53.59;98137.41;5032105;28;20518;-72
2023/09/25 01:08:34;;;;;;;4.00;2.90;;;;;;;14.34;53.76;98135.09;5042119;28;20417;-72
2023/09/25 01:11:01;;;;;;;4.00;3.03;;;;;;;14.32;53.06;98142.34;5030821;28;20676;-73
2023/09/25 01:13:28;;;;;;;3.50;2.87;;;;;;;14.22;53.60;98145.91;5036465;28;20801;-73
2023/09/25 01:15:53;;;;;;;6.17;3.13;;;;;;;14.20;53.61;98142.59;5028390;28;20430;-73
2023/09/25 01:18:19;;;;;;;5.70;3.10;;;;;;;14.17;54.03;98142.88;5028490;28;20791;-71
2023/09/25 01:20:45;;;;;;;6.27;3.00;;;;;;;14.08;53.76;98138.53;5033700;28;20621;-70
2023/09/25 01:23:10;;;;;;;3.73;2.90;;;;;;;14.02;54.07;98134.69;5037491;28;20186;-73
2023/09/25 01:25:35;;;;;;;3.03;2.73;;;;;;;14.04;53.95;98131.91;5045680;28;20278;-71
2023/09/25 01:28:01;;;;;;;5.73;2.60;;;;;;;14.04;54.03;98137.16;5031735;28;20188;-72
2023/09/25 01:30:28;;;;;;;3.40;2.93;;;;;;;14.08;53.74;98133.25;5034882;28;20606;-72
2023/09/25 01:32:53;;;;;;;3.93;2.97;;;;;;;14.06;53.66;98130.75;5018370;28;20198;-72
2023/09/25 01:35:22;;;;;;;6.27;3.53;;;;;;;14.04;53.64;98137.16;5038931;28;20788;-71
2023/09/25 01:37:48;;;;;;;3.50;3.20;;;;;;;13.98;53.30;98123.63;5038254;28;20222;-72
2023/09/25 01:40:15;;;;;;;3.53;2.80;;;;;;;13.86;53.71;98122.19;5036047;28;20453;-72
2023/09/25 01:42:41;;;;;;;3.03;2.73;;;;;;;13.74;54.24;98120.75;5035064;28;20683;-73
2023/09/25 01:45:11;;;;;;;5.10;3.00;;;;;;;13.74;54.11;98112.84;5033977;28;20426;-74
2023/09/25 01:47:37;;;;;;;4.20;2.93;;;;;;;13.73;54.35;98108.59;5043203;28;20429;-72
2023/09/25 01:50:03;;;;;;;4.13;3.10;;;;;;;13.72;54.35;98113.00;5025653;28;20452;-72
2023/09/25 01:52:29;;;;;;;4.87;2.53;;;;;;;13.69;54.49;98101.94;5029129;28;20508;-72
2023/09/25 01:54:55;;;;;;;3.70;3.00;;;;;;;13.65;54.62;98107.50;5032660;28;20451;-72
2023/09/25 01:57:21;;;;;;;6.20;3.00;;;;;;;13.69;54.38;98097.50;5030163;28;20289;-71
2023/09/25 01:59:46;;;;;;;3.87;2.90;;;;;;;13.70;54.31;98096.53;5036724;28;20203;-73
2023/09/25 02:02:12;;;;;;;7.03;3.43;;;;;;;13.71;54.23;98092.09;5041937;28;20529;-72
2023/09/25 02:04:37;;;;;;;3.03;2.73;;;;;;;13.73;53.98;98090.13;5028452;28;20591;-72
2023/09/25 02:07:03;;;;;;;4.67;2.87;;;;;;;13.63;54.12;98091.03;5031166;28;20551;-72
2023/09/25 02:09:28;;;;;;;4.60;3.27;;;;;;;13.63;54.26;98104.19;5034936;28;20736;-72
2023/09/25 02:11:54;;;;;;;5.67;2.90;;;;;;;13.60;54.19;98101.88;5041234;28;20651;-72
2023/09/25 02:14:20;;;;;;;4.23;2.60;;;;;;;13.63;54.34;98114.72;5016735;28;20637;-73
2023/09/25 02:16:46;;;;;;;3.57;3.00;;;;;;;13.65;54.09;98107.50;5037236;28;20245;-73
2023/09/25 02:19:11;;;;;;;5.70;3.10;;;;;;;13.60;54.41;98104.50;5036788;28;20511;-73
2023/09/25 02:21:37;;;;;;;6.47;3.40;;;;;;;13.58;54.48;98103.84;5029407;28;20183;-75
2023/09/25 02:24:02;;;;;;;4.27;3.20;;;;;;;13.60;54.42;98096.63;5028686;28;20179;-73
2023/09/25 02:26:28;;;;;;;3.80;3.03;;;;;;;13.60;54.15;98099.25;5028880;28;20186;-74
2023/09/25 02:28:53;;;;;;;4.60;3.03;;;;;;;13.49;54.73;98099.44;5024840;28;20559;-73
2023/09/25 02:31:19;;;;;;;4.13;2.77;;;;;;;13.51;54.19;98097.47;5035405;28;20214;-72
2023/09/25 02:33:44;;;;;;;3.77;3.00;;;;;;;13.44;54.02;98101.69;5037195;28;20180;-73
2023/09/25 02:36:10;;;;;;;4.13;3.47;;;;;;;13.34;54.35;98102.56;5028471;28;20259;-75
2023/09/25 02:38:36;;;;;;;5.13;3.20;;;;;;;13.28;54.69;98092.63;5032351;28;20707;-73
2023/09/25 02:41:01;;;;;;;6.00;2.60;;;;;;;13.24;54.53;98093.88;5041563;28;20356;-72
2023/09/25 02:43:27;;;;;;;3.33;2.80;;;;;;;13.27;54.50;98083.06;5020466;28;20558;-72
2023/09/25 02:45:53;;;;;;;5.53;2.97;;;;;;;13.22;54.62;98085.31;5037458;28;20696;-72
2023/09/25 02:48:18;;;;;;;5.00;2.97;;;;;;;13.22;54.64;98090.59;5033243;28;20190;-74
2023/09/25 02:50:46;;;;;;;3.93;3.00;;;;;;;13.17;54.73;98085.75;5030018;28;20434;-73
2023/09/25 02:53:11;;;;;;;5.37;3.20;;;;;;;13.13;54.82;98086.19;5023323;28;20176;-72
2023/09/25 02:55:37;;;;;;;3.70;2.83;;;;;;;13.11;54.59;98088.13;5043600;28;20779;-73
2023/09/25 02:58:02;;;;;;;4.20;3.17;;;;;;;13.14;54.78;98090.47;5038545;28;20326;-71
2023/09/25 03:00:28;;;;;;;6.77;2.90;;;;;;;13.16;54.30;98091.16;5044090;28;20207;-72
2023/09/25 03:02:53;;;;;;;3.13;2.83;;;;;;;13.18;54.25;98084.75;5042178;28;20217;-72
2023/09/25 03:05:19;;;;;;;3.97;3.03;;;;;;;13.11;54.46;98088.97;5027449;28;20235;-72
2023/09/25 03:07:45;;;;;;;4.30;3.37;;;;;;;13.10;54.95;98097.03;5038522;28;20216;-72
2023/09/25 03:10:10;;;;;;;4.50;3.10;;;;;;;12.90;55.03;98090.06;5031613;28;20222;-73
2023/09/25 03:12:36;;;;;;;5.23;3.23;;;;;;;12.96;54.89;98088.66;5024148;28;20674;-72
2023/09/25 03:15:04;;;;;;;3.43;3.03;;;;;;;13.00;54.87;98092.63;5032093;28;20190;-71
2023/09/25 03:17:30;;;;;;;3.87;3.10;;;;;;;12.93;55.29;98094.19;5030810;28;20969;-72
2023/09/25 03:19:56;;;;;;;6.43;3.10;;;;;;;12.99;54.72;98085.69;5030795;28;20821;-71
2023/09/25 03:22:21;;;;;;;3.77;3.10;;;;;;;12.95;55.10;98089.63;5031310;28;20516;-73
2023/09/25 03:24:48;;;;;;;5.70;3.70;;;;;;;13.01;55.09;98089.00;5031582;28;20267;-74
2023/09/25 03:27:14;;;;;;;8.20;3.40;;;;;;;12.96;54.95;98093.91;5043746;28;20343;-70
2023/09/25 03:29:39;;;;;;;4.73;3.30;;;;;;;12.99;54.81;98090.16;5041012;28;20446;-73
2023/09/25 03:32:05;;;;;;;3.97;2.90;;;;;;;12.94;54.71;98093.22;5034801;28;20180;-72
2023/09/25 03:34:30;;;;;;;4.37;3.13;;;;;;;12.87;55.11;98087.72;5044863;28;20211;-73
2023/09/25 03:36:55;;;;;;;4.23;2.93;;;;;;;12.88;54.74;98088.53;5040948;28;20298;-72
2023/09/25 03:39:21;;;;;;;3.03;2.70;;;;;;;12.90;55.22;98090.06;5035645;28;20602;-74
2023/09/25 03:41:46;;;;;;;5.10;2.97;;;;;;;12.89;55.03;98079.66;5038323;28;20179;-74
2023/09/25 03:44:12;;;;;;;4.40;3.00;;;;;;;12.92;54.62;98082.00;5045582;28;20221;-73
2023/09/25 03:46:37;;;;;;;3.30;3.00;;;;;;;12.86;55.02;98080.78;5038710;28;20277;-73
2023/09/25 03:49:05;;;;;;;4.40;3.37;;;;;;;12.78;55.09;98078.06;5037935;28;20310;-74
2023/09/25 03:51:35;;;;;;;5.00;3.10;;;;;;;12.71;55.45;98077.81;5035075;28;20238;-74
2023/09/25 03:54:00;;;;;;;4.60;3.03;;;;;;;12.70;55.23;98083.19;5039014;28;20764;-72
2023/09/25 03:56:28;;;;;;;4.60;2.90;;;;;;;12.54;55.94;98083.81;5026625;28;20454;-70
2023/09/25 03:58:53;;;;;;;5.27;3.63;;;;;;;12.62;55.82;98089.19;5041933;28;20214;-72
2023/09/25 04:01:19;;;;;;;3.50;3.17;;;;;;;12.62;55.38;98078.66;5032550;28;21077;-69
2023/09/25 04:03:46;;;;;;;6.80;3.30;;;;;;;12.60;55.27;98081.44;5012181;28;20187;-72
2023/09/25 04:06:11;;;;;;;4.20;2.97;;;;;;;12.62;55.34;98083.91;5038775;28;20194;-72
2023/09/25 04:08:37;;;;;;;4.20;3.30;;;;;;;12.57;55.50;98086.97;5030446;28;21576;-72
2023/09/25 04:11:03;;;;;;;4.00;3.07;;;;;;;12.53;55.51;98095.31;5036512;28;20315;-72
2023/09/25 04:13:28;;;;;;;4.83;3.03;;;;;;;12.44;55.60;98097.81;5044787;28;20190;-73
2023/09/25 04:15:54;;;;;;;3.03;2.50;;;;;;;12.49;55.41;98099.19;5025260;28;20422;-75
2023/09/25 04:18:20;;;;;;;2.87;2.57;;;;;;;12.55;55.66;98104.69;5033762;28;20200;-72
2023/09/25 04:20:46;;;;;;;3.03;2.73;;;;;;;12.59;55.40;98094.75;5015928;28;20175;-72
2023/09/25 04:23:12;;;;;;;3.93;3.20;;;;;;;12.58;55.28;98093.09;5036190;28;20920;-72
2023/09/25 04:25:37;;;;;;;3.27;2.80;;;;;;;12.57;55.74;98091.44;5011071;28;20187;-71
2023/09/25 04:28:03;;;;;;;4.03;2.93;;;;;;;12.56;55.36;98084.50;5038339;28;20914;-71
2023/09/25 04:30:29;;;;;;;3.10;2.80;;;;;;;12.53;55.51;98090.88;5032009;28;20203;-72
2023/09/25 04:32:54;;;;;;;3.00;2.70;;;;;;;12.45;55.71;98093.38;5004724;28;20729;-69
2023/09/25 04:35:21;;;;;;;4.40;2.80;;;;;;;12.44;55.88;98079.44;5039391;28;20187;-71
2023/09/25 04:37:46;;;;;;;6.23;3.47;;;;;;;12.46;55.75;98086.34;5018263;28;20196;-71
2023/09/25 04:40:22;;;;;;;3.50;2.93;;;;;;;12.37;55.55;98085.38;5011628;28;20450;-71
2023/09/25 04:42:52;;;;;;;5.63;3.70;;;;;;;12.32;56.29;98082.34;5036610;28;20749;-73
2023/09/25 04:45:18;;;;;;;5.50;3.13;;;;;;;12.37;56.04;98083.56;5037023;28;20778;-71
2023/09/25 04:47:48;;;;;;;4.90;2.87;;;;;;;12.41;56.15;98082.34;5041471;28;20516;-73
2023/09/25 04:50:13;;;;;;;7.17;3.20;;;;;;;12.41;55.49;98086.78;5028990;28;20443;-71
2023/09/25 04:52:40;;;;;;;4.10;3.10;;;;;;;12.39;55.59;98083.44;5034718;28;20941;-72
2023/09/25 04:55:12;;;;;;;5.27;3.13;;;;;;;12.38;55.62;98097.56;5023399;28;20259;-71
2023/09/25 04:57:40;;;;;;;3.77;2.60;;;;;;;12.37;55.98;98101.97;5031634;28;20465;-71
2023/09/25 05:03:00;;;;;;;4.27;2.97;;;;;;;12.41;55.66;98084.97;5024278;28;20469;-71
2023/09/25 05:05:26;;;;;;;5.90;3.30;;;;;;;12.35;55.80;98087.31;5028653;28;20471;-71
2023/09/25 05:07:53;;;;;;;4.07;3.67;;;;;;;12.27;56.13;98091.50;5037871;28;20178;-72
2023/09/25 05:10:25;;;;;;;10.47;3.07;;;;;;;12.25;56.23;98092.59;5046786;28;20437;-72
2023/09/25 05:12:50;;;;;;;4.37;3.40;;;;;;;12.31;55.94;98099.94;5023382;28;20463;-71
2023/09/25 05:15:16;;;;;;;5.20;3.30;;;;;;;12.28;55.91;98103.69;5027496;28;20430;-71
2023/09/25 05:17:42;;;;;;;10.93;3.53;;;;;;;12.34;55.79;98097.03;5034630;28;20215;-72
2023/09/25 05:20:12;;;;;;;6.27;3.67;;;;;;;12.34;55.80;98096.19;4991149;28;20255;-71
2023/09/25 05:22:41;;;;;;;7.10;5.63;;;;;;;12.26;55.95;98096.88;5031165;28;20430;-72
2023/09/25 05:25:09;;;;;;;15.50;4.63;;;;;;;12.26;56.06;98096.88;5034772;28;20501;-72
2023/09/25 05:27:35;;;;;;;26.83;4.83;;;;;;;12.29;56.04;98099.22;5030886;28;20431;-71
2023/09/25 05:30:05;;;;;;;19.07;5.20;;;;;;;12.30;56.06;98100.91;5031659;28;20452;-71
2023/09/25 05:32:32;;;;;;;15.30;5.53;;;;;;;12.27;56.37;98094.13;5018547;28;22076;-70
2023/09/25 05:34:57;;;;;;;28.03;6.40;;;;;;;12.29;56.70;98093.97;5031168;28;20418;-71
2023/09/25 05:37:23;;;;;;;16.83;5.40;;;;;;;12.33;56.48;98098.00;5034946;28;21282;-72
2023/09/25 05:39:49;;;;;;;30.93;7.60;;;;;;;12.58;56.29;98103.59;5035037;28;20798;-72
2023/09/25 05:42:14;;;;;;;30.23;14.17;;;;;;;12.87;54.93;98098.22;5041015;28;20190;-72
2023/09/25 05:44:40;;;;;;;33.50;18.23;;;;;;;13.04;54.57;98099.25;5028009;28;20469;-72
2023/09/25 05:47:05;;;;;;;32.73;19.90;;;;;;;13.31;53.91;98099.38;5033219;28;20183;-72
2023/09/25 05:49:31;;;;;;;35.40;18.70;;;;;;;13.46;53.76;98095.31;5036884;28;20245;-71
2023/09/25 05:51:57;;;;;;;30.53;17.50;;;;;;;13.59;54.21;98102.00;5018874;28;20175;-73
2023/09/25 05:54:22;;;;;;;21.50;14.30;;;;;;;13.64;54.24;98095.31;5031642;28;20172;-72
2023/09/25 05:56:48;;;;;;;24.07;9.83;;;;;;;13.65;54.43;98096.16;5028001;28;20971;-72
2023/09/25 05:59:16;;;;;;;19.07;8.10;;;;;;;13.76;54.28;98093.28;5040177;28;20203;-71
2023/09/25 06:01:42;;;;;;;21.53;12.23;;;;;;;13.80;54.27;98093.81;5028269;28;20199;-72
2023/09/25 06:04:09;;;;;;;18.47;11.50;;;;;;;13.81;54.45;98082.31;5017678;28;20467;-72
2023/09/25 06:06:34;;;;;;;13.70;9.00;;;;;;;13.85;54.63;98086.28;5024894;28;20492;-72
2023/09/25 06:09:00;;;;;;;14.90;8.90;;;;;;;13.95;54.35;98094.09;5028610;28;20943;-73
2023/09/25 06:11:25;;;;;;;14.57;9.30;;;;;;;14.02;54.26;98087.25;5036512;28;20192;-72
2023/09/25 06:13:51;;;;;;;13.17;8.40;;;;;;;14.04;54.23;98087.09;5018146;28;20185;-71
2023/09/25 06:16:16;;;;;;;8.83;5.90;;;;;;;14.06;54.27;98093.03;5034103;28;20665;-71
2023/09/25 06:18:43;;;;;;;11.67;7.87;;;;;;;14.08;54.76;98086.63;5031524;28;20285;-72
2023/09/25 06:21:10;;;;;;;8.97;5.87;;;;;;;14.20;54.67;98089.84;5016952;28;20267;-73
2023/09/25 06:23:36;;;;;;;13.97;7.73;;;;;;;14.32;55.08;98093.06;5026459;28;20422;-71
2023/09/25 06:26:02;;;;;;;12.20;7.60;;;;;;;14.48;54.73;98097.63;5028068;28;20422;-72
2023/09/25 06:28:29;;;;;;;10.40;7.07;;;;;;;14.65;54.79;98092.44;5036261;28;20427;-72
2023/09/25 06:30:55;;;;;;;14.53;6.90;;;;;;;14.80;54.57;98093.53;5015761;28;20274;-72
2023/09/25 06:33:21;;;;;;;6.50;5.57;;;;;;;14.89;53.77;98089.94;5019321;28;20426;-73
2023/09/25 06:35:46;;;;;;;9.57;5.20;;;;;;;15.00;53.24;98088.84;5032353;28;20433;-73
2023/09/25 06:38:12;;;;;;;6.40;4.90;;;;;;;15.07;53.32;98096.13;5036273;28;20203;-74
2023/09/25 06:40:43;;;;;;;6.53;4.70;;;;;;;15.14;53.35;98089.22;5032404;28;20183;-72
2023/09/25 06:43:09;;;;;;;9.30;5.07;;;;;;;15.20;53.45;98096.50;5022973;28;20180;-72
2023/09/25 06:45:34;;;;;;;11.03;5.80;;;;;;;15.29;53.31;98089.44;5030964;28;21106;-72
2023/09/25 06:48:00;;;;;;;9.27;5.83;;;;;;;15.41;52.91;98098.69;5031958;28;20194;-72
2023/09/25 06:50:25;;;;;;;7.97;5.40;;;;;;;15.56;53.06;98095.44;5040377;28;20211;-73
2023/09/25 06:52:51;;;;;;;8.67;5.83;;;;;;;15.72;53.00;98091.97;5027862;28;20191;-72
2023/09/25 06:55:17;;;;;;;14.07;5.50;;;;;;;15.85;52.80;98094.19;5038473;28;20194;-72
2023/09/25 06:57:42;;;;;;;13.80;5.93;;;;;;;15.97;52.86;98092.88;5032188;28;20560;-73
2023/09/25 07:00:09;;;;;;;12.03;6.47;;;;;;;16.10;52.47;98102.94;5037778;28;20217;-72
2023/09/25 07:02:36;;;;;;;8.47;5.17;;;;;;;16.23;51.65;98092.69;5039725;28;20264;-72
2023/09/25 07:05:02;;;;;;;7.37;5.50;;;;;;;16.31;52.18;98083.91;5027000;28;20427;-71
2023/09/25 07:07:28;;;;;;;9.83;6.33;;;;;;;16.46;51.63;98085.88;5031866;28;20434;-71
2023/09/25 07:09:53;;;;;;;10.03;6.53;;;;;;;16.53;51.24;98086.84;5034709;28;20446;-72
2023/09/25 07:12:19;;;;;;;7.60;6.20;;;;;;;16.60;51.17;98082.53;5014427;28;20242;-73
2023/09/25 07:14:58;;;;;;;20.57;11.03;;;;;;;16.74;51.30;98081.00;5028800;28;20614;-72
2023/09/25 07:17:24;;;;;;;67.20;46.90;;;;;;;16.89;51.09;98075.81;5034617;28;20242;-72
2023/09/25 07:19:51;;;;;;;37.20;31.20;;;;;;;16.99;51.13;98079.13;5033804;28;20962;-71
2023/09/25 07:22:16;;;;;;;38.23;29.53;;;;;;;17.09;50.88;98086.03;5028565;28;20191;-73
2023/09/25 07:24:42;;;;;;;16.70;12.80;;;;;;;17.23;51.82;98081.81;5029882;28;20426;-72
2023/09/25 07:27:07;;;;;;;44.77;32.73;;;;;;;17.33;51.46;98080.63;5038984;28;20175;-73
2023/09/25 07:29:33;;;;;;;10.50;7.33;;;;;;;17.49;50.99;98086.81;5028402;28;20227;-72
2023/09/25 07:31:58;;;;;;;18.57;13.47;;;;;;;17.58;50.67;98088.41;5037262;28;20171;-72
2023/09/25 07:34:23;;;;;;;18.03;15.60;;;;;;;17.69;51.17;98089.84;5027526;28;20191;-73
2023/09/25 07:36:49;;;;;;;13.30;7.13;;;;;;;17.78;49.96;98085.28;5037003;28;20219;-74
2023/09/25 07:39:18;;;;;;;8.40;6.17;;;;;;;17.91;50.03;98090.81;5033530;28;20195;-72
2023/09/25 07:41:45;;;;;;;29.20;19.47;;;;;;;18.01;48.68;98092.47;5031506;28;20180;-73
2023/09/25 07:44:12;;;;;;;13.77;7.87;;;;;;;18.16;48.95;98093.31;5037883;28;20471;-72
2023/09/25 07:46:39;;;;;;;8.90;6.60;;;;;;;18.29;48.34;98095.34;5030794;28;20421;-71
2023/09/25 07:49:05;;;;;;;10.20;8.13;;;;;;;18.41;48.42;98095.72;5027805;28;20452;-72
2023/09/25 07:51:32;;;;;;;5.57;3.70;;;;;;;18.61;48.20;98100.53;5033387;28;20583;-72
2023/09/25 07:53:58;;;;;;;10.50;6.70;;;;;;;18.79;47.66;98095.66;5035915;28;20414;-72
2023/09/25 07:56:24;;;;;;;5.33;3.83;;;;;;;18.98;46.50;98096.97;5033285;28;20426;-72
2023/09/25 07:58:50;;;;;;;11.00;5.97;;;;;;;19.16;45.90;98098.41;5031487;28;20458;-72
2023/09/25 08:01:15;;;;;;;5.80;3.57;;;;;;;19.34;45.50;98098.03;5041975;28;20444;-73
2023/09/25 08:03:40;;;;;;;5.50;3.00;;;;;;;19.57;45.78;98092.56;5029752;28;20183;-74
2023/09/25 08:06:06;;;;;;;10.10;3.10;;;;;;;19.79;45.28;98101.34;5029472;28;20203;-72
2023/09/25 08:08:35;;;;;;;6.90;2.53;;;;;;;19.97;44.08;98101.97;5036492;28;20187;-72
2023/09/25 08:11:01;;;;;;;3.83;2.80;;;;;;;20.19;43.35;98105.41;5047824;28;20207;-72
2023/09/25 08:13:26;;;;;;;3.97;3.10;;;;;;;20.40;42.51;98109.88;5036472;28;20889;-73
2023/09/25 08:15:52;;;;;;;3.43;2.97;;;;;;;20.64;42.79;98105.13;5042127;28;20172;-73
2023/09/25 08:18:17;;;;;;;3.70;2.70;;;;;;;20.88;42.31;98103.88;5031488;28;20759;-71
2023/09/25 08:20:43;;;;;;;4.13;2.80;;;;;;;21.13;41.27;98106.84;5042845;28;20706;-72
2023/09/25 08:23:09;;;;;;;4.73;2.93;;;;;;;21.33;40.87;98103.47;5040904;28;20237;-73
2023/09/25 08:25:34;;;;;;;13.60;7.37;;;;;;;21.54;40.64;98109.66;5035550;28;20189;-73
2023/09/25 08:28:00;;;;;;;54.60;42.33;;;;;;;21.86;40.40;98107.31;5043552;28;20514;-72
2023/09/25 08:30:26;;;;;;;33.10;26.07;;;;;;;22.14;40.43;98106.28;5042098;28;20210;-73
2023/09/25 08:32:52;;;;;;;19.50;14.30;;;;;;;22.41;39.65;98109.81;5031070;28;20187;-72
2023/09/25 08:35:17;;;;;;;7.50;3.60;;;;;;;22.51;37.06;98112.03;5019049;28;20190;-73
2023/09/25 08:37:43;;;;;;;7.60;6.20;;;;;;;22.62;38.38;98113.28;5044407;28;20474;-73
2023/09/25 08:40:09;;;;;;;14.90;10.63;;;;;;;22.91;36.92;98105.81;5037825;28;20273;-73
2023/09/25 08:42:35;;;;;;;5.03;2.97;;;;;;;22.98;36.15;98114.63;5040692;28;20232;-72
2023/09/25 08:45:02;;;;;;;7.43;4.00;;;;;;;23.15;36.96;98109.63;5032282;28;20245;-72
2023/09/25 08:47:31;;;;;;;3.63;3.30;;;;;;;23.36;36.35;98105.88;5035866;28;20183;-72
2023/09/25 08:49:57;;;;;;;7.00;5.30;;;;;;;23.54;35.79;98112.38;5039561;28;21227;-72
2023/09/25 08:52:23;;;;;;;5.00;4.50;;;;;;;23.65;35.83;98114.38;5036523;28;20415;-72
2023/09/25 08:54:49;;;;;;;8.87;6.07;;;;;;;23.93;35.50;98116.66;5032481;28;20863;-73
2023/09/25 08:57:16;;;;;;;5.67;3.67;;;;;;;24.12;34.98;98115.94;5038046;28;20454;-73
2023/09/25 08:59:44;;;;;;;4.40;3.23;;;;;;;23.93;33.96;98115.84;5037327;28;20442;-73
2023/09/25 09:02:10;;;;;;;13.00;3.07;;;;;;;23.92;34.59;98122.25;5039410;28;20422;-74
2023/09/25 09:04:36;;;;;;;4.83;3.20;;;;;;;24.08;34.23;98120.91;5037427;28;20442;-73
2023/09/25 09:07:03;;;;;;;7.00;5.33;;;;;;;24.20;34.33;98112.97;5037102;28;20445;-72
2023/09/25 09:09:29;;;;;;;3.10;2.80;;;;;;;24.32;33.87;98116.59;5016668;28;20200;-73
2023/09/25 09:11:57;;;;;;;7.23;3.10;;;;;;;24.10;33.07;98105.47;5042221;28;20430;-71
2023/09/25 09:14:42;;;;;;;3.80;2.73;;;;;;;24.14;34.29;98108.50;5036316;28;20199;-73
2023/09/25 09:17:09;;;;;;;8.33;3.60;;;;;;;24.47;34.20;98115.44;5040137;28;20459;-71
2023/09/25 09:19:36;;;;;;;5.43;3.80;;;;;;;24.72;33.88;98114.59;5035866;28;20474;-73
2023/09/25 09:22:04;;;;;;;4.43;2.80;;;;;;;24.78;32.80;98116.41;5034198;28;20434;-71
2023/09/25 09:24:35;;;;;;;8.43;4.50;;;;;;;24.95;33.10;98106.72;5029415;28;20451;-71
2023/09/25 09:27:01;;;;;;;4.20;2.40;;;;;;;25.16;32.02;98107.31;5005601;28;20473;-70
2023/09/25 09:29:28;;;;;;;5.00;3.40;;;;;;;25.18;32.61;98104.41;5032733;28;20457;-70
2023/09/25 09:31:54;;;;;;;4.30;3.30;;;;;;;25.26;31.87;98110.28;5032785;28;20422;-72
2023/09/25 09:34:23;;;;;;;6.47;4.17;;;;;;;25.44;32.03;98109.47;5029761;28;20836;-70
2023/09/25 09:36:52;;;;;;;6.50;3.60;;;;;;;25.53;32.13;98101.09;5029237;28;20430;-71
2023/09/25 09:39:20;;;;;;;5.90;3.30;;;;;;;25.43;31.68;98107.03;5026803;28;20866;-72
2023/09/25 09:42:03;;;;;;;;;;;;;;;;;;;;;
2023/09/25 09:44:30;;;;;;;6.80;2.90;;;;;;;25.77;31.54;98102.00;5022196;28;20434;-71
2023/09/25 09:46:55;;;;;;;4.00;3.27;;;;;;;25.81;31.33;98094.28;5028982;28;20524;-71
2023/09/25 09:49:21;;;;;;;2.93;2.60;;;;;;;26.03;30.38;98100.75;5039980;28;20200;-71
2023/09/25 09:51:51;;;;;;;3.47;2.63;;;;;;;26.11;30.69;98090.78;5016693;28;20274;-69
2023/09/25 09:54:21;;;;;;;5.40;2.63;;;;;;;26.20;30.46;98094.75;5026081;28;20183;-70
2023/09/25 09:56:47;;;;;;;4.57;3.00;;;;;;;26.45;30.47;98091.84;5011201;28;20440;-71
2023/09/25 09:59:14;;;;;;;4.07;2.90;;;;;;;26.56;29.69;98095.56;5027154;28;20454;-70
2023/09/25 10:01:42;;;;;;;4.30;3.67;;;;;;;26.60;30.20;98087.84;5023495;28;20461;-70
2023/09/25 10:04:07;;;;;;;4.90;2.93;;;;;;;26.73;29.93;98092.19;5038350;28;20446;-70
2023/09/25 10:06:36;;;;;;;6.07;3.00;;;;;;;26.86;29.80;98088.44;5014716;28;21002;-71
2023/09/25 10:09:10;;;;;;;4.63;2.97;;;;;;;26.98;29.76;98094.59;5039536;28;20754;-70
2023/09/25 10:11:36;;;;;;;4.80;3.40;;;;;;;27.14;29.51;98093.06;5034699;28;20421;-70
2023/09/25 10:14:05;;;;;;;6.43;3.20;;;;;;;27.06;29.48;98088.03;5014507;28;20472;-70
2023/09/25 10:16:50;;;;;;;5.10;2.93;;;;;;;27.21;29.68;98090.25;5030737;28;20183;-71
2023/09/25 10:19:20;;;;;;;5.00;2.70;;;;;;;27.24;29.54;98078.97;5035037;28;20493;-71
2023/09/25 10:22:18;;;;;;;7.63;2.43;;;;;;;27.29;29.15;98087.16;5028261;28;20442;-70
2023/09/25 10:24:46;;;;;;;4.43;2.80;;;;;;;27.40;29.45;98083.59;5033605;28;20413;-69
2023/09/25 10:27:14;;;;;;;18.60;3.30;;;;;;;27.53;29.12;98079.00;5037598;28;20452;-70
2023/09/25 10:29:39;;;;;;;7.07;2.97;;;;;;;27.68;29.10;98083.84;5035076;28;20523;-69
2023/09/25 10:32:14;;;;;;;3.87;2.90;;;;;;;27.64;29.02;98074.63;5013372;28;20919;-70
2023/09/25 10:34:40;;;;;;;3.37;2.50;;;;;;;27.69;29.30;98075.53;5005826;28;20236;-70
2023/09/25 10:37:05;;;;;;;3.37;2.70;;;;;;;27.78;29.30;98081.34;5028933;28;20430;-69
2023/09/25 10:39:31;;;;;;;2.80;2.60;;;;;;;28.00;28.91;98078.72;5036206;28;20714;-71
2023/09/25 10:42:09;;;;;;;4.30;2.70;;;;;;;28.13;28.00;98074.13;5034779;28;20184;-68
2023/09/25 10:44:38;;;;;;;3.87;2.30;;;;;;;28.13;27.82;98066.88;5029286;28;20430;-73
2023/09/25 10:47:07;;;;;;;3.17;2.30;;;;;;;28.05;27.04;98065.38;5035743;28;20418;-70
2023/09/25 10:49:36;;;;;;;4.33;2.60;;;;;;;27.95;27.23;98069.75;5038084;28;20862;-70
2023/09/25 10:52:03;;;;;;;3.83;2.10;;;;;;;27.74;27.82;98067.53;5037320;28;20431;-69
2023/09/25 10:54:30;;;;;;;4.17;2.70;;;;;;;27.81;27.91;98071.97;5038124;28;20429;-69
2023/09/25 10:56:58;;;;;;;4.23;2.50;;;;;;;27.99;27.72;98071.72;5032095;28;20419;-68
2023/09/25 10:59:25;;;;;;;6.03;2.60;;;;;;;27.95;27.69;98061.69;5032734;28;20528;-72
2023/09/25 11:01:51;;;;;;;4.33;2.40;;;;;;;28.12;27.44;98059.84;5040092;28;20438;-70
2023/09/25 11:04:17;;;;;;;2.13;1.93;;;;;;;28.30;27.42;98066.84;5031686;28;20434;-69
2023/09/25 11:06:42;;;;;;;4.23;2.27;;;;;;;28.32;27.54;98072.81;5036242;28;20932;-70
2023/09/25 11:09:08;;;;;;;8.07;2.30;;;;;;;28.42;27.29;98064.03;5036827;28;20203;-69
2023/09/25 11:11:33;;;;;;;4.83;2.63;;;;;;;28.31;26.69;98071.16;5031279;28;20235;-69
2023/09/25 11:13:59;;;;;;;3.13;2.20;;;;;;;28.29;27.63;98067.91;5037991;28;20649;-71
2023/09/25 11:16:24;;;;;;;3.50;2.03;;;;;;;28.38;27.60;98062.91;5035611;28;20198;-71
2023/09/25 11:19:04;;;;;;;4.90;2.30;;;;;;;28.47;27.34;98066.81;5044585;28;20210;-70
2023/09/25 11:21:31;;;;;;;2.70;2.30;;;;;;;28.57;26.98;98065.31;5036563;28;20198;-71
2023/09/25 11:23:56;;;;;;;4.73;2.20;;;;;;;28.48;27.43;98070.34;5040330;28;20458;-72
2023/09/25 11:26:25;;;;;;;3.03;2.20;;;;;;;28.69;27.23;98067.91;5034131;28;22310;-71
2023/09/25 11:28:53;;;;;;;3.43;2.43;;;;;;;28.65;26.92;98068.41;5037545;28;20203;-70
2023/09/25 11:31:19;;;;;;;3.07;2.10;;;;;;;28.75;27.14;98069.63;5038475;28;20433;-72